sensor_id;sensor_type;location;lat;lon;timestamp;P1;durP1;ratioP1;P2;durP2;ratioP2
64601;SDS011;68371;42.630;23.192;2023-07-13T00:01:27;6.82;;;3.78;;
64601;SDS011;68371;42.630;23.192;2023-07-13T00:03:55;5.63;;;3.83;;
64601;SDS011;68371;42.630;23.192;2023-07-13T00:06:23;4.50;;;3.45;;
64601;SDS011;68371;42.630;23.192;2023-07-13T00:08:50;6.22;;;3.17;;
64601;SDS011;68371;42.630;23.192;2023-07-13T00:11:18;10.32;;;4.30;;
64601;SDS011;68371;42.630;23.192;2023-07-13T00:13:46;5.70;;;3.72;;
64601;SDS011;68371;42.630;23.192;2023-07-13T00:16:13;6.85;;;3.80;;
64601;SDS011;68371;42.630;23.192;2023-07-13T00:18:40;6.68;;;3.88;;
64601;SDS011;68371;42.630;23.192;2023-07-13T00:21:06;5.45;;;3.92;;
64601;SDS011;68371;42.630;23.192;2023-07-13T00:23:34;5.28;;;3.67;;
64601;SDS011;68371;42.630;23.192;2023-07-13T00:26:04;5.00;;;3.50;;
64601;SDS011;68371;42.630;23.192;2023-07-13T00:28:32;9.88;;;3.58;;
64601;SDS011;68371;42.630;23.192;2023-07-13T00:31:01;6.82;;;4.00;;
64601;SDS011;68371;42.630;23.192;2023-07-13T00:33:28;6.43;;;3.90;;
64601;SDS011;68371;42.630;23.192;2023-07-13T00:35:56;9.52;;;3.75;;
64601;SDS011;68371;42.630;23.192;2023-07-13T00:38:23;6.47;;;4.00;;
64601;SDS011;68371;42.630;23.192;2023-07-13T00:40:50;5.47;;;3.97;;
64601;SDS011;68371;42.630;23.192;2023-07-13T00:43:17;5.57;;;3.88;;
64601;SDS011;68371;42.630;23.192;2023-07-13T00:48:53;5.18;;;3.55;;
64601;SDS011;68371;42.630;23.192;2023-07-13T00:51:25;5.68;;;3.60;;
64601;SDS011;68371;42.630;23.192;2023-07-13T00:53:58;9.57;;;3.70;;
64601;SDS011;68371;42.630;23.192;2023-07-13T00:56:30;8.25;;;4.05;;
64601;SDS011;68371;42.630;23.192;2023-07-13T00:58:59;4.57;;;3.78;;
64601;SDS011;68371;42.630;23.192;2023-07-13T01:01:29;7.13;;;3.67;;
64601;SDS011;68371;42.630;23.192;2023-07-13T01:03:57;7.20;;;4.15;;
64601;SDS011;68371;42.630;23.192;2023-07-13T01:06:24;6.05;;;3.63;;
64601;SDS011;68371;42.630;23.192;2023-07-13T01:08:51;5.40;;;3.92;;
64601;SDS011;68371;42.630;23.192;2023-07-13T01:11:19;6.10;;;3.10;;
64601;SDS011;68371;42.630;23.192;2023-07-13T01:13:47;5.93;;;3.45;;
64601;SDS011;68371;42.630;23.192;2023-07-13T01:16:15;5.28;;;3.85;;
64601;SDS011;68371;42.630;23.192;2023-07-13T01:18:48;5.88;;;3.97;;
64601;SDS011;68371;42.630;23.192;2023-07-13T01:21:16;8.63;;;3.70;;
64601;SDS011;68371;42.630;23.192;2023-07-13T01:23:44;7.95;;;3.85;;
64601;SDS011;68371;42.630;23.192;2023-07-13T01:26:11;8.50;;;4.03;;
64601;SDS011;68371;42.630;23.192;2023-07-13T01:28:38;8.18;;;4.50;;
64601;SDS011;68371;42.630;23.192;2023-07-13T01:31:05;5.65;;;4.15;;
64601;SDS011;68371;42.630;23.192;2023-07-13T01:33:33;7.60;;;3.90;;
64601;SDS011;68371;42.630;23.192;2023-07-13T01:36:00;5.75;;;3.85;;
64601;SDS011;68371;42.630;23.192;2023-07-13T01:38:29;6.95;;;4.40;;
64601;SDS011;68371;42.630;23.192;2023-07-13T01:40:55;9.18;;;3.60;;
64601;SDS011;68371;42.630;23.192;2023-07-13T01:43:22;8.82;;;3.45;;
64601;SDS011;68371;42.630;23.192;2023-07-13T01:45:49;6.53;;;4.10;;
64601;SDS011;68371;42.630;23.192;2023-07-13T01:48:16;7.97;;;4.20;;
64601;SDS011;68371;42.630;23.192;2023-07-13T01:50:43;5.22;;;4.05;;
64601;SDS011;68371;42.630;23.192;2023-07-13T01:53:10;6.50;;;4.10;;
64601;SDS011;68371;42.630;23.192;2023-07-13T01:55:38;13.15;;;4.00;;
64601;SDS011;68371;42.630;23.192;2023-07-13T01:58:05;6.35;;;3.80;;
64601;SDS011;68371;42.630;23.192;2023-07-13T02:00:33;9.32;;;4.05;;
64601;SDS011;68371;42.630;23.192;2023-07-13T02:03:00;5.47;;;4.07;;
64601;SDS011;68371;42.630;23.192;2023-07-13T02:05:27;8.73;;;4.05;;
64601;SDS011;68371;42.630;23.192;2023-07-13T02:07:53;5.32;;;4.00;;
64601;SDS011;68371;42.630;23.192;2023-07-13T02:10:20;6.30;;;4.10;;
64601;SDS011;68371;42.630;23.192;2023-07-13T02:12:49;7.55;;;3.80;;
64601;SDS011;68371;42.630;23.192;2023-07-13T02:15:17;10.57;;;4.22;;
64601;SDS011;68371;42.630;23.192;2023-07-13T02:17:44;6.63;;;4.03;;
64601;SDS011;68371;42.630;23.192;2023-07-13T02:20:10;5.20;;;3.90;;
64601;SDS011;68371;42.630;23.192;2023-07-13T02:22:37;10.52;;;3.95;;
64601;SDS011;68371;42.630;23.192;2023-07-13T02:25:04;6.03;;;4.22;;
64601;SDS011;68371;42.630;23.192;2023-07-13T02:27:31;6.10;;;3.97;;
64601;SDS011;68371;42.630;23.192;2023-07-13T02:30:01;6.50;;;4.00;;
64601;SDS011;68371;42.630;23.192;2023-07-13T02:32:28;7.00;;;4.10;;
64601;SDS011;68371;42.630;23.192;2023-07-13T02:34:56;8.85;;;4.10;;
64601;SDS011;68371;42.630;23.192;2023-07-13T02:37:22;10.13;;;3.58;;
64601;SDS011;68371;42.630;23.192;2023-07-13T02:39:49;7.55;;;4.38;;
64601;SDS011;68371;42.630;23.192;2023-07-13T02:42:16;11.18;;;4.03;;
64601;SDS011;68371;42.630;23.192;2023-07-13T02:44:43;9.43;;;4.57;;
64601;SDS011;68371;42.630;23.192;2023-07-13T02:47:11;5.05;;;3.72;;
64601;SDS011;68371;42.630;23.192;2023-07-13T02:49:39;6.55;;;3.97;;
64601;SDS011;68371;42.630;23.192;2023-07-13T02:52:05;5.80;;;4.00;;
64601;SDS011;68371;42.630;23.192;2023-07-13T02:54:32;5.72;;;4.28;;
64601;SDS011;68371;42.630;23.192;2023-07-13T02:57:00;5.75;;;4.30;;
64601;SDS011;68371;42.630;23.192;2023-07-13T02:59:27;8.48;;;4.47;;
64601;SDS011;68371;42.630;23.192;2023-07-13T03:01:54;8.07;;;4.68;;
64601;SDS011;68371;42.630;23.192;2023-07-13T03:04:22;5.82;;;4.28;;
64601;SDS011;68371;42.630;23.192;2023-07-13T03:06:49;7.40;;;4.38;;
64601;SDS011;68371;42.630;23.192;2023-07-13T03:09:16;6.32;;;4.53;;
64601;SDS011;68371;42.630;23.192;2023-07-13T03:11:43;7.00;;;4.20;;
64601;SDS011;68371;42.630;23.192;2023-07-13T03:14:09;10.05;;;4.40;;
64601;SDS011;68371;42.630;23.192;2023-07-13T03:16:36;7.45;;;4.80;;
64601;SDS011;68371;42.630;23.192;2023-07-13T03:19:03;6.00;;;4.28;;
64601;SDS011;68371;42.630;23.192;2023-07-13T03:21:31;7.32;;;4.95;;
64601;SDS011;68371;42.630;23.192;2023-07-13T03:23:58;12.32;;;4.72;;
64601;SDS011;68371;42.630;23.192;2023-07-13T03:26:25;9.68;;;4.47;;
64601;SDS011;68371;42.630;23.192;2023-07-13T03:28:52;6.93;;;4.60;;
64601;SDS011;68371;42.630;23.192;2023-07-13T03:31:19;8.30;;;5.03;;
64601;SDS011;68371;42.630;23.192;2023-07-13T03:33:47;12.15;;;4.90;;
64601;SDS011;68371;42.630;23.192;2023-07-13T03:36:15;7.38;;;4.78;;
64601;SDS011;68371;42.630;23.192;2023-07-13T03:38:47;8.85;;;4.72;;
64601;SDS011;68371;42.630;23.192;2023-07-13T03:41:14;8.88;;;4.65;;
64601;SDS011;68371;42.630;23.192;2023-07-13T03:43:41;11.15;;;5.25;;
64601;SDS011;68371;42.630;23.192;2023-07-13T03:46:09;16.13;;;4.90;;
64601;SDS011;68371;42.630;23.192;2023-07-13T03:48:35;16.90;;;5.25;;
64601;SDS011;68371;42.630;23.192;2023-07-13T03:51:05;8.82;;;5.10;;
64601;SDS011;68371;42.630;23.192;2023-07-13T03:53:31;18.65;;;5.78;;
64601;SDS011;68371;42.630;23.192;2023-07-13T03:56:00;23.35;;;5.60;;
64601;SDS011;68371;42.630;23.192;2023-07-13T03:58:28;17.08;;;5.47;;
64601;SDS011;68371;42.630;23.192;2023-07-13T04:00:57;16.95;;;5.25;;
64601;SDS011;68371;42.630;23.192;2023-07-13T04:03:25;15.15;;;5.18;;
64601;SDS011;68371;42.630;23.192;2023-07-13T04:05:53;13.00;;;5.45;;
64601;SDS011;68371;42.630;23.192;2023-07-13T04:08:20;15.20;;;5.60;;
64601;SDS011;68371;42.630;23.192;2023-07-13T04:10:46;11.65;;;5.55;;
64601;SDS011;68371;42.630;23.192;2023-07-13T04:13:15;25.75;;;6.30;;
64601;SDS011;68371;42.630;23.192;2023-07-13T04:15:41;18.10;;;6.32;;
64601;SDS011;68371;42.630;23.192;2023-07-13T04:18:09;13.50;;;5.70;;
64601;SDS011;68371;42.630;23.192;2023-07-13T04:20:36;8.57;;;5.15;;
64601;SDS011;68371;42.630;23.192;2023-07-13T04:23:03;17.88;;;6.85;;
64601;SDS011;68371;42.630;23.192;2023-07-13T04:25:30;30.60;;;7.30;;
64601;SDS011;68371;42.630;23.192;2023-07-13T04:27:57;27.58;;;5.63;;
64601;SDS011;68371;42.630;23.192;2023-07-13T04:30:25;25.20;;;6.03;;
64601;SDS011;68371;42.630;23.192;2023-07-13T04:32:52;17.67;;;5.68;;
64601;SDS011;68371;42.630;23.192;2023-07-13T04:35:19;24.42;;;7.32;;
64601;SDS011;68371;42.630;23.192;2023-07-13T04:37:47;13.90;;;5.80;;
64601;SDS011;68371;42.630;23.192;2023-07-13T04:40:15;13.02;;;6.30;;
64601;SDS011;68371;42.630;23.192;2023-07-13T04:42:42;13.70;;;6.18;;
64601;SDS011;68371;42.630;23.192;2023-07-13T04:45:11;15.90;;;6.28;;
64601;SDS011;68371;42.630;23.192;2023-07-13T04:47:41;14.70;;;6.10;;
64601;SDS011;68371;42.630;23.192;2023-07-13T04:50:08;11.20;;;5.95;;
64601;SDS011;68371;42.630;23.192;2023-07-13T04:52:37;12.45;;;5.88;;
64601;SDS011;68371;42.630;23.192;2023-07-13T04:55:04;10.90;;;6.13;;
64601;SDS011;68371;42.630;23.192;2023-07-13T04:57:31;17.10;;;5.90;;
64601;SDS011;68371;42.630;23.192;2023-07-13T04:59:59;15.73;;;6.45;;
64601;SDS011;68371;42.630;23.192;2023-07-13T05:02:26;16.25;;;6.25;;
64601;SDS011;68371;42.630;23.192;2023-07-13T05:04:55;13.75;;;6.80;;
64601;SDS011;68371;42.630;23.192;2023-07-13T05:07:21;14.70;;;6.35;;
64601;SDS011;68371;42.630;23.192;2023-07-13T05:09:48;8.00;;;5.63;;
64601;SDS011;68371;42.630;23.192;2023-07-13T05:12:15;11.63;;;5.70;;
64601;SDS011;68371;42.630;23.192;2023-07-13T05:14:42;12.13;;;6.30;;
64601;SDS011;68371;42.630;23.192;2023-07-13T05:17:09;11.20;;;6.30;;
64601;SDS011;68371;42.630;23.192;2023-07-13T05:19:35;13.88;;;6.50;;
64601;SDS011;68371;42.630;23.192;2023-07-13T05:22:04;15.90;;;6.47;;
64601;SDS011;68371;42.630;23.192;2023-07-13T05:24:31;13.13;;;6.80;;
64601;SDS011;68371;42.630;23.192;2023-07-13T05:26:58;12.00;;;5.93;;
64601;SDS011;68371;42.630;23.192;2023-07-13T05:29:24;14.65;;;6.10;;
64601;SDS011;68371;42.630;23.192;2023-07-13T05:31:51;17.35;;;6.65;;
64601;SDS011;68371;42.630;23.192;2023-07-13T05:34:18;11.57;;;5.95;;
64601;SDS011;68371;42.630;23.192;2023-07-13T05:36:45;10.50;;;6.00;;
64601;SDS011;68371;42.630;23.192;2023-07-13T05:39:14;12.93;;;6.65;;
64601;SDS011;68371;42.630;23.192;2023-07-13T05:41:41;13.45;;;6.38;;
64601;SDS011;68371;42.630;23.192;2023-07-13T05:44:08;16.83;;;5.90;;
64601;SDS011;68371;42.630;23.192;2023-07-13T05:46:35;12.48;;;6.60;;
64601;SDS011;68371;42.630;23.192;2023-07-13T05:49:01;13.15;;;6.40;;
64601;SDS011;68371;42.630;23.192;2023-07-13T05:51:28;15.07;;;6.03;;
64601;SDS011;68371;42.630;23.192;2023-07-13T05:53:55;75.00;;;7.75;;
64601;SDS011;68371;42.630;23.192;2023-07-13T05:56:23;23.13;;;6.88;;
64601;SDS011;68371;42.630;23.192;2023-07-13T05:58:51;20.95;;;6.72;;
64601;SDS011;68371;42.630;23.192;2023-07-13T06:01:18;12.65;;;6.70;;
64601;SDS011;68371;42.630;23.192;2023-07-13T06:03:45;17.17;;;6.88;;
64601;SDS011;68371;42.630;23.192;2023-07-13T06:06:13;11.32;;;6.68;;
64601;SDS011;68371;42.630;23.192;2023-07-13T06:08:41;17.83;;;6.65;;
64601;SDS011;68371;42.630;23.192;2023-07-13T06:11:09;23.63;;;7.45;;
64601;SDS011;68371;42.630;23.192;2023-07-13T06:13:42;30.75;;;7.53;;
64601;SDS011;68371;42.630;23.192;2023-07-13T06:16:10;16.85;;;7.07;;
64601;SDS011;68371;42.630;23.192;2023-07-13T06:18:37;21.77;;;7.10;;
64601;SDS011;68371;42.630;23.192;2023-07-13T06:21:07;21.80;;;7.28;;
64601;SDS011;68371;42.630;23.192;2023-07-13T06:23:35;17.05;;;6.97;;
64601;SDS011;68371;42.630;23.192;2023-07-13T06:26:02;16.88;;;6.85;;
64601;SDS011;68371;42.630;23.192;2023-07-13T06:28:29;16.38;;;7.28;;
64601;SDS011;68371;42.630;23.192;2023-07-13T06:30:58;15.90;;;7.32;;
64601;SDS011;68371;42.630;23.192;2023-07-13T06:33:25;16.45;;;6.72;;
64601;SDS011;68371;42.630;23.192;2023-07-13T06:35:52;18.77;;;7.43;;
64601;SDS011;68371;42.630;23.192;2023-07-13T06:38:19;20.98;;;7.78;;
64601;SDS011;68371;42.630;23.192;2023-07-13T06:40:46;25.05;;;7.72;;
64601;SDS011;68371;42.630;23.192;2023-07-13T06:43:13;23.83;;;7.97;;
64601;SDS011;68371;42.630;23.192;2023-07-13T06:45:41;19.23;;;8.45;;
64601;SDS011;68371;42.630;23.192;2023-07-13T06:48:12;24.07;;;8.10;;
64601;SDS011;68371;42.630;23.192;2023-07-13T06:50:39;18.58;;;7.82;;
64601;SDS011;68371;42.630;23.192;2023-07-13T06:53:07;25.63;;;8.43;;
64601;SDS011;68371;42.630;23.192;2023-07-13T06:55:34;21.48;;;8.43;;
64601;SDS011;68371;42.630;23.192;2023-07-13T06:58:01;31.38;;;8.93;;
64601;SDS011;68371;42.630;23.192;2023-07-13T07:00:27;22.77;;;8.07;;
64601;SDS011;68371;42.630;23.192;2023-07-13T07:02:54;18.85;;;8.20;;
64601;SDS011;68371;42.630;23.192;2023-07-13T07:05:22;18.50;;;8.25;;
64601;SDS011;68371;42.630;23.192;2023-07-13T07:07:49;26.95;;;8.23;;
64601;SDS011;68371;42.630;23.192;2023-07-13T07:10:17;27.10;;;7.03;;
64601;SDS011;68371;42.630;23.192;2023-07-13T07:12:44;22.40;;;7.05;;
64601;SDS011;68371;42.630;23.192;2023-07-13T07:15:12;19.48;;;7.50;;
64601;SDS011;68371;42.630;23.192;2023-07-13T07:17:40;14.23;;;6.65;;
64601;SDS011;68371;42.630;23.192;2023-07-13T07:20:07;19.67;;;6.82;;
64601;SDS011;68371;42.630;23.192;2023-07-13T07:22:36;17.80;;;5.80;;
64601;SDS011;68371;42.630;23.192;2023-07-13T07:25:02;25.77;;;6.80;;
64601;SDS011;68371;42.630;23.192;2023-07-13T07:27:30;15.32;;;5.72;;
64601;SDS011;68371;42.630;23.192;2023-07-13T07:29:56;14.95;;;5.10;;
64601;SDS011;68371;42.630;23.192;2023-07-13T07:32:23;12.80;;;5.07;;
64601;SDS011;68371;42.630;23.192;2023-07-13T07:34:50;9.32;;;4.80;;
64601;SDS011;68371;42.630;23.192;2023-07-13T07:37:18;12.77;;;5.00;;
64601;SDS011;68371;42.630;23.192;2023-07-13T07:39:46;12.23;;;4.75;;
64601;SDS011;68371;42.630;23.192;2023-07-13T07:42:13;8.52;;;4.28;;
64601;SDS011;68371;42.630;23.192;2023-07-13T07:44:40;6.18;;;4.13;;
64601;SDS011;68371;42.630;23.192;2023-07-13T07:47:07;6.07;;;4.40;;
64601;SDS011;68371;42.630;23.192;2023-07-13T07:49:34;7.68;;;4.10;;
64601;SDS011;68371;42.630;23.192;2023-07-13T07:52:01;5.57;;;3.70;;
64601;SDS011;68371;42.630;23.192;2023-07-13T07:54:28;6.57;;;3.38;;
64601;SDS011;68371;42.630;23.192;2023-07-13T07:56:56;9.10;;;3.50;;
64601;SDS011;68371;42.630;23.192;2023-07-13T07:59:23;8.82;;;3.97;;
64601;SDS011;68371;42.630;23.192;2023-07-13T08:01:49;12.15;;;3.47;;
64601;SDS011;68371;42.630;23.192;2023-07-13T08:04:16;6.72;;;3.53;;
64601;SDS011;68371;42.630;23.192;2023-07-13T08:06:44;9.25;;;3.90;;
64601;SDS011;68371;42.630;23.192;2023-07-13T08:09:11;7.03;;;3.67;;
64601;SDS011;68371;42.630;23.192;2023-07-13T08:11:37;5.03;;;3.40;;
64601;SDS011;68371;42.630;23.192;2023-07-13T08:14:06;5.18;;;3.45;;
64601;SDS011;68371;42.630;23.192;2023-07-13T08:16:34;5.23;;;3.13;;
64601;SDS011;68371;42.630;23.192;2023-07-13T08:19:01;8.85;;;3.40;;
64601;SDS011;68371;42.630;23.192;2023-07-13T08:21:29;5.95;;;3.13;;
64601;SDS011;68371;42.630;23.192;2023-07-13T08:23:56;6.90;;;3.42;;
64601;SDS011;68371;42.630;23.192;2023-07-13T08:26:22;6.35;;;3.05;;
64601;SDS011;68371;42.630;23.192;2023-07-13T08:28:50;5.68;;;3.10;;
64601;SDS011;68371;42.630;23.192;2023-07-13T08:31:18;6.95;;;3.20;;
64601;SDS011;68371;42.630;23.192;2023-07-13T08:33:46;8.82;;;3.08;;
64601;SDS011;68371;42.630;23.192;2023-07-13T08:36:12;5.38;;;2.80;;
64601;SDS011;68371;42.630;23.192;2023-07-13T08:38:39;4.90;;;3.10;;
64601;SDS011;68371;42.630;23.192;2023-07-13T08:41:10;6.57;;;3.08;;
64601;SDS011;68371;42.630;23.192;2023-07-13T08:43:39;5.57;;;3.08;;
64601;SDS011;68371;42.630;23.192;2023-07-13T08:46:10;10.80;;;3.33;;
64601;SDS011;68371;42.630;23.192;2023-07-13T08:48:43;6.28;;;2.85;;
64601;SDS011;68371;42.630;23.192;2023-07-13T08:51:18;7.05;;;3.10;;
64601;SDS011;68371;42.630;23.192;2023-07-13T08:53:54;6.65;;;3.28;;
64601;SDS011;68371;42.630;23.192;2023-07-13T08:56:25;5.25;;;3.42;;
64601;SDS011;68371;42.630;23.192;2023-07-13T08:58:55;9.35;;;3.40;;
64601;SDS011;68371;42.630;23.192;2023-07-13T09:01:25;4.57;;;3.40;;
64601;SDS011;68371;42.630;23.192;2023-07-13T09:04:02;8.57;;;3.35;;
64601;SDS011;68371;42.630;23.192;2023-07-13T09:06:34;7.88;;;3.33;;
64601;SDS011;68371;42.630;23.192;2023-07-13T09:09:10;7.38;;;3.72;;
64601;SDS011;68371;42.630;23.192;2023-07-13T09:11:46;9.18;;;3.90;;
64601;SDS011;68371;42.630;23.192;2023-07-13T09:14:27;5.18;;;3.53;;
64601;SDS011;68371;42.630;23.192;2023-07-13T09:17:05;13.98;;;3.67;;
64601;SDS011;68371;42.630;23.192;2023-07-13T09:19:38;6.47;;;3.25;;
64601;SDS011;68371;42.630;23.192;2023-07-13T09:22:09;9.50;;;3.67;;
64601;SDS011;68371;42.630;23.192;2023-07-13T09:24:49;7.43;;;3.67;;
64601;SDS011;68371;42.630;23.192;2023-07-13T09:27:23;4.93;;;3.20;;
64601;SDS011;68371;42.630;23.192;2023-07-13T09:29:57;5.72;;;3.60;;
64601;SDS011;68371;42.630;23.192;2023-07-13T09:32:35;8.38;;;3.80;;
64601;SDS011;68371;42.630;23.192;2023-07-13T09:35:07;10.23;;;3.03;;
64601;SDS011;68371;42.630;23.192;2023-07-13T09:37:37;6.32;;;3.70;;
64601;SDS011;68371;42.630;23.192;2023-07-13T09:40:08;6.13;;;3.63;;
64601;SDS011;68371;42.630;23.192;2023-07-13T09:42:47;9.02;;;3.70;;
64601;SDS011;68371;42.630;23.192;2023-07-13T09:45:15;7.47;;;3.55;;
64601;SDS011;68371;42.630;23.192;2023-07-13T09:47:54;5.45;;;3.30;;
64601;SDS011;68371;42.630;23.192;2023-07-13T09:50:27;5.50;;;3.50;;
64601;SDS011;68371;42.630;23.192;2023-07-13T09:52:54;8.73;;;3.72;;
64601;SDS011;68371;42.630;23.192;2023-07-13T09:55:25;9.07;;;3.80;;
64601;SDS011;68371;42.630;23.192;2023-07-13T09:57:54;10.18;;;3.67;;
64601;SDS011;68371;42.630;23.192;2023-07-13T10:00:22;6.70;;;3.47;;
64601;SDS011;68371;42.630;23.192;2023-07-13T10:03:01;6.73;;;3.97;;
64601;SDS011;68371;42.630;23.192;2023-07-13T10:05:38;7.80;;;4.15;;
64601;SDS011;68371;42.630;23.192;2023-07-13T10:08:09;4.80;;;3.72;;
64601;SDS011;68371;42.630;23.192;2023-07-13T10:10:43;10.00;;;3.45;;
64601;SDS011;68371;42.630;23.192;2023-07-13T10:13:21;5.32;;;3.70;;
64601;SDS011;68371;42.630;23.192;2023-07-13T10:16:03;8.35;;;3.45;;
64601;SDS011;68371;42.630;23.192;2023-07-13T10:18:35;9.02;;;3.88;;
64601;SDS011;68371;42.630;23.192;2023-07-13T10:21:12;5.20;;;3.70;;
64601;SDS011;68371;42.630;23.192;2023-07-13T10:23:41;9.32;;;3.67;;
64601;SDS011;68371;42.630;23.192;2023-07-13T10:26:11;10.73;;;4.20;;
64601;SDS011;68371;42.630;23.192;2023-07-13T10:28:43;6.53;;;3.97;;
64601;SDS011;68371;42.630;23.192;2023-07-13T10:31:14;7.35;;;3.80;;
64601;SDS011;68371;42.630;23.192;2023-07-13T10:33:43;6.38;;;3.65;;
64601;SDS011;68371;42.630;23.192;2023-07-13T10:36:15;8.32;;;3.30;;
64601;SDS011;68371;42.630;23.192;2023-07-13T10:38:49;10.75;;;4.00;;
64601;SDS011;68371;42.630;23.192;2023-07-13T10:41:18;9.15;;;3.90;;
64601;SDS011;68371;42.630;23.192;2023-07-13T10:43:47;6.00;;;3.88;;
64601;SDS011;68371;42.630;23.192;2023-07-13T10:46:18;5.90;;;3.70;;
64601;SDS011;68371;42.630;23.192;2023-07-13T10:48:49;8.10;;;4.03;;
64601;SDS011;68371;42.630;23.192;2023-07-13T10:51:21;7.97;;;4.07;;
64601;SDS011;68371;42.630;23.192;2023-07-13T10:54:10;9.32;;;4.10;;
64601;SDS011;68371;42.630;23.192;2023-07-13T10:56:43;10.07;;;3.65;;
64601;SDS011;68371;42.630;23.192;2023-07-13T10:59:11;6.70;;;4.05;;
64601;SDS011;68371;42.630;23.192;2023-07-13T11:01:46;7.35;;;3.60;;
64601;SDS011;68371;42.630;23.192;2023-07-13T11:04:16;12.25;;;3.80;;
64601;SDS011;68371;42.630;23.192;2023-07-13T11:06:47;8.10;;;3.70;;
64601;SDS011;68371;42.630;23.192;2023-07-13T11:09:31;5.75;;;3.75;;
64601;SDS011;68371;42.630;23.192;2023-07-13T11:12:02;11.13;;;4.15;;
64601;SDS011;68371;42.630;23.192;2023-07-13T11:14:35;7.47;;;3.67;;
64601;SDS011;68371;42.630;23.192;2023-07-13T11:20:08;7.00;;;4.13;;
64601;SDS011;68371;42.630;23.192;2023-07-13T11:22:47;8.52;;;4.35;;
64601;SDS011;68371;42.630;23.192;2023-07-13T11:28:03;7.15;;;3.65;;
64601;SDS011;68371;42.630;23.192;2023-07-13T11:30:35;12.85;;;3.30;;
64601;SDS011;68371;42.630;23.192;2023-07-13T11:33:10;8.10;;;3.70;;
64601;SDS011;68371;42.630;23.192;2023-07-13T11:35:45;12.80;;;3.72;;
64601;SDS011;68371;42.630;23.192;2023-07-13T11:38:30;5.43;;;3.75;;
64601;SDS011;68371;42.630;23.192;2023-07-13T11:41:01;12.20;;;4.07;;
64601;SDS011;68371;42.630;23.192;2023-07-13T11:43:30;5.32;;;3.47;;
64601;SDS011;68371;42.630;23.192;2023-07-13T11:46:11;6.65;;;4.10;;
64601;SDS011;68371;42.630;23.192;2023-07-13T11:51:06;8.07;;;3.60;;
64601;SDS011;68371;42.630;23.192;2023-07-13T11:53:46;7.85;;;3.90;;
64601;SDS011;68371;42.630;23.192;2023-07-13T11:56:16;9.95;;;3.38;;
64601;SDS011;68371;42.630;23.192;2023-07-13T11:58:43;7.03;;;3.33;;
64601;SDS011;68371;42.630;23.192;2023-07-13T12:01:15;6.25;;;3.50;;
64601;SDS011;68371;42.630;23.192;2023-07-13T12:03:45;12.50;;;3.75;;
64601;SDS011;68371;42.630;23.192;2023-07-13T12:09:08;8.65;;;3.38;;
64601;SDS011;68371;42.630;23.192;2023-07-13T12:11:39;10.48;;;4.05;;
64601;SDS011;68371;42.630;23.192;2023-07-13T12:14:12;9.40;;;3.90;;
64601;SDS011;68371;42.630;23.192;2023-07-13T12:16:40;8.55;;;3.78;;
64601;SDS011;68371;42.630;23.192;2023-07-13T12:19:09;5.68;;;3.35;;
64601;SDS011;68371;42.630;23.192;2023-07-13T12:21:44;9.50;;;3.78;;
64601;SDS011;68371;42.630;23.192;2023-07-13T12:24:15;8.98;;;3.88;;
64601;SDS011;68371;42.630;23.192;2023-07-13T12:26:42;11.75;;;4.00;;
64601;SDS011;68371;42.630;23.192;2023-07-13T12:29:11;11.10;;;3.47;;
64601;SDS011;68371;42.630;23.192;2023-07-13T12:31:43;9.75;;;3.38;;
64601;SDS011;68371;42.630;23.192;2023-07-13T12:34:12;6.80;;;3.63;;
64601;SDS011;68371;42.630;23.192;2023-07-13T12:36:41;10.50;;;3.80;;
64601;SDS011;68371;42.630;23.192;2023-07-13T12:39:17;9.13;;;3.70;;
64601;SDS011;68371;42.630;23.192;2023-07-13T12:41:46;5.78;;;3.33;;
64601;SDS011;68371;42.630;23.192;2023-07-13T12:44:15;13.90;;;3.90;;
64601;SDS011;68371;42.630;23.192;2023-07-13T12:46:52;6.05;;;3.42;;
64601;SDS011;68371;42.630;23.192;2023-07-13T12:49:22;12.93;;;3.60;;
64601;SDS011;68371;42.630;23.192;2023-07-13T12:51:51;10.93;;;3.67;;
64601;SDS011;68371;42.630;23.192;2023-07-13T12:54:24;7.20;;;3.28;;
64601;SDS011;68371;42.630;23.192;2023-07-13T12:56:53;12.60;;;3.92;;
64601;SDS011;68371;42.630;23.192;2023-07-13T12:59:22;9.85;;;3.42;;
64601;SDS011;68371;42.630;23.192;2023-07-13T13:01:51;11.15;;;3.78;;
64601;SDS011;68371;42.630;23.192;2023-07-13T13:04:19;12.65;;;3.08;;
64601;SDS011;68371;42.630;23.192;2023-07-13T13:06:48;6.03;;;3.30;;
64601;SDS011;68371;42.630;23.192;2023-07-13T13:09:16;5.95;;;2.92;;
64601;SDS011;68371;42.630;23.192;2023-07-13T13:11:46;5.15;;;3.22;;
64601;SDS011;68371;42.630;23.192;2023-07-13T13:14:13;8.52;;;3.33;;
64601;SDS011;68371;42.630;23.192;2023-07-13T13:16:44;10.55;;;3.47;;
64601;SDS011;68371;42.630;23.192;2023-07-13T13:19:14;8.35;;;3.20;;
64601;SDS011;68371;42.630;23.192;2023-07-13T13:21:43;6.45;;;3.05;;
64601;SDS011;68371;42.630;23.192;2023-07-13T13:24:12;13.70;;;3.88;;
64601;SDS011;68371;42.630;23.192;2023-07-13T13:26:40;11.40;;;3.72;;
64601;SDS011;68371;42.630;23.192;2023-07-13T13:29:13;6.30;;;3.35;;
64601;SDS011;68371;42.630;23.192;2023-07-13T13:31:41;8.10;;;3.28;;
64601;SDS011;68371;42.630;23.192;2023-07-13T13:34:09;8.13;;;3.47;;
64601;SDS011;68371;42.630;23.192;2023-07-13T13:36:37;8.63;;;3.58;;
64601;SDS011;68371;42.630;23.192;2023-07-13T13:39:08;10.45;;;3.72;;
64601;SDS011;68371;42.630;23.192;2023-07-13T13:41:45;9.00;;;3.03;;
64601;SDS011;68371;42.630;23.192;2023-07-13T13:44:14;7.43;;;3.17;;
64601;SDS011;68371;42.630;23.192;2023-07-13T13:46:42;10.25;;;3.50;;
64601;SDS011;68371;42.630;23.192;2023-07-13T13:49:12;10.57;;;3.60;;
64601;SDS011;68371;42.630;23.192;2023-07-13T13:51:41;8.68;;;3.33;;
64601;SDS011;68371;42.630;23.192;2023-07-13T13:54:09;8.40;;;3.70;;
64601;SDS011;68371;42.630;23.192;2023-07-13T13:56:38;7.18;;;3.55;;
64601;SDS011;68371;42.630;23.192;2023-07-13T13:59:05;9.25;;;3.60;;
64601;SDS011;68371;42.630;23.192;2023-07-13T14:01:35;8.25;;;3.78;;
64601;SDS011;68371;42.630;23.192;2023-07-13T14:04:03;17.90;;;4.03;;
64601;SDS011;68371;42.630;23.192;2023-07-13T14:06:33;12.10;;;3.80;;
64601;SDS011;68371;42.630;23.192;2023-07-13T14:09:01;8.98;;;3.60;;
64601;SDS011;68371;42.630;23.192;2023-07-13T14:11:28;8.30;;;3.30;;
64601;SDS011;68371;42.630;23.192;2023-07-13T14:13:58;12.60;;;3.70;;
64601;SDS011;68371;42.630;23.192;2023-07-13T14:18:57;9.93;;;3.60;;
64601;SDS011;68371;42.630;23.192;2023-07-13T14:21:26;12.02;;;3.22;;
64601;SDS011;68371;42.630;23.192;2023-07-13T14:23:54;7.75;;;3.10;;
64601;SDS011;68371;42.630;23.192;2023-07-13T14:26:22;7.15;;;3.75;;
64601;SDS011;68371;42.630;23.192;2023-07-13T14:28:51;10.05;;;3.53;;
64601;SDS011;68371;42.630;23.192;2023-07-13T14:31:20;11.98;;;3.58;;
64601;SDS011;68371;42.630;23.192;2023-07-13T14:33:48;8.43;;;3.93;;
64601;SDS011;68371;42.630;23.192;2023-07-13T14:36:21;9.52;;;3.72;;
64601;SDS011;68371;42.630;23.192;2023-07-13T14:38:52;8.63;;;3.80;;
64601;SDS011;68371;42.630;23.192;2023-07-13T14:41:19;8.75;;;3.63;;
64601;SDS011;68371;42.630;23.192;2023-07-13T14:43:46;10.52;;;3.78;;
64601;SDS011;68371;42.630;23.192;2023-07-13T14:46:18;10.13;;;3.58;;
64601;SDS011;68371;42.630;23.192;2023-07-13T14:48:53;10.70;;;3.55;;
64601;SDS011;68371;42.630;23.192;2023-07-13T14:51:28;10.73;;;3.83;;
64601;SDS011;68371;42.630;23.192;2023-07-13T14:53:54;12.18;;;4.00;;
64601;SDS011;68371;42.630;23.192;2023-07-13T14:56:21;11.55;;;3.78;;